createdAt,value
2019-04-05T00:01:16.479Z,51.20
2019-04-05T00:03:45.427Z,51.20
2019-04-05T00:06:14.355Z,51.40
2019-04-05T00:08:43.307Z,51.30
2019-04-05T00:11:12.318Z,51.30
2019-04-05T00:13:41.222Z,51.40
2019-04-05T00:16:10.513Z,51.20
2019-04-05T00:18:39.440Z,51.30
2019-04-05T00:21:08.468Z,51.40
2019-04-05T00:23:37.535Z,51.20
2019-04-05T00:33:04.231Z,51.40
2019-04-05T00:35:33.298Z,51.40
2019-04-05T00:38:02.276Z,51.50
2019-04-05T00:40:31.232Z,51.50
2019-04-05T00:43:00.251Z,51.50
2019-04-05T00:45:29.204Z,51.80
2019-04-05T00:47:58.062Z,51.90
2019-04-05T00:50:27.021Z,51.70
2019-04-05T00:52:56.026Z,51.80
2019-04-05T00:55:24.927Z,52.10
2019-04-05T00:57:53.941Z,51.80
2019-04-05T01:00:23.464Z,51.70
2019-04-05T01:02:52.480Z,52.00
2019-04-05T01:05:21.391Z,51.50
2019-04-05T01:07:50.462Z,51.60
2019-04-05T01:10:19.595Z,51.60
2019-04-05T01:12:48.510Z,52.00
2019-04-05T01:15:17.767Z,51.60
2019-04-05T01:17:47.031Z,51.60
2019-04-05T01:20:16.030Z,51.30
2019-04-05T01:22:46.490Z,51.80
2019-04-05T01:25:15.666Z,52.00
2019-04-05T01:27:44.754Z,51.70
2019-04-05T01:30:15.136Z,51.90
2019-04-05T01:32:44.234Z,51.50
2019-04-05T01:35:13.389Z,51.20
2019-04-05T01:37:42.663Z,51.20
2019-04-05T01:40:12.773Z,51.30
2019-04-05T01:42:42.655Z,51.40
2019-04-05T01:45:12.093Z,51.50
2019-04-05T01:47:41.316Z,51.40
2019-04-05T01:50:11.005Z,51.70
2019-04-05T01:52:41.297Z,51.30
2019-04-05T01:55:10.588Z,51.50
2019-04-05T01:57:39.562Z,51.90
2019-04-05T02:00:10.093Z,51.70
2019-04-05T02:02:39.388Z,51.40
2019-04-05T02:05:09.039Z,51.50
2019-04-05T02:07:38.077Z,51.70
2019-04-05T02:10:08.402Z,51.60
2019-04-05T02:12:38.371Z,51.80
2019-04-05T02:15:08.494Z,51.70
2019-04-05T02:17:37.785Z,51.60
2019-04-05T02:20:07.759Z,51.80
2019-04-05T02:22:36.840Z,51.80
2019-04-05T02:25:06.371Z,51.40
2019-04-05T02:27:35.472Z,51.50
2019-04-05T02:30:05.148Z,51.60
2019-04-05T02:32:34.211Z,52.60
2019-04-05T02:35:03.251Z,51.90
2019-04-05T02:37:32.231Z,51.70
2019-04-05T02:40:01.121Z,51.90
2019-04-05T02:42:30.656Z,51.60
2019-04-05T02:45:00.067Z,51.90
2019-04-05T02:47:30.003Z,51.80
2019-04-05T02:49:59.670Z,52.00
2019-04-05T02:52:30.158Z,51.70
2019-04-05T02:55:00.457Z,51.60
2019-04-05T02:57:30.417Z,51.70
2019-04-05T03:00:00.001Z,51.80
2019-04-05T03:02:29.807Z,51.80
2019-04-05T03:04:58.795Z,51.80
2019-04-05T03:07:28.716Z,51.90
2019-04-05T03:09:58.595Z,51.80
2019-04-05T03:12:28.681Z,52.00
2019-04-05T03:15:00.002Z,51.90
2019-04-05T03:17:29.095Z,51.70
2019-04-05T03:20:00.670Z,51.90
2019-04-05T03:22:31.205Z,52.10
2019-04-05T03:25:01.439Z,52.10
2019-04-05T03:27:33.592Z,52.30
2019-04-05T03:30:03.359Z,52.30
2019-04-05T03:32:32.807Z,52.30
2019-04-05T03:35:02.259Z,52.00
2019-04-05T03:37:31.498Z,52.20
2019-04-05T03:40:01.137Z,52.30
2019-04-05T03:42:30.897Z,52.70
2019-04-05T03:45:00.190Z,52.50
2019-04-05T03:47:29.683Z,52.50
2019-04-05T03:49:59.333Z,52.80
2019-04-05T03:52:28.364Z,52.40
2019-04-05T03:54:57.953Z,52.70
2019-04-05T03:57:27.250Z,52.30
2019-04-05T03:59:56.641Z,52.60
2019-04-05T04:02:25.935Z,52.60
2019-04-05T04:04:55.653Z,52.90
2019-04-05T04:07:24.933Z,52.90
2019-04-05T04:09:53.906Z,52.60
2019-04-05T04:12:23.207Z,52.70
2019-04-05T04:14:52.514Z,52.80
2019-04-05T04:17:22.358Z,52.90
2019-04-05T04:19:51.637Z,52.90
2019-04-05T04:22:30.712Z,53.10
2019-04-05T04:25:00.548Z,53.40
2019-04-05T04:27:30.366Z,53.00
2019-04-05T04:30:00.515Z,53.00
2019-04-05T04:32:30.413Z,53.00
2019-04-05T04:34:59.807Z,52.90
2019-04-05T04:37:29.478Z,53.10
2019-04-05T04:39:59.275Z,53.20
2019-04-05T04:42:29.157Z,53.30
2019-04-05T04:45:11.319Z,53.30
2019-04-05T04:47:29.737Z,53.40
2019-04-05T04:50:00.079Z,53.40
2019-04-05T04:52:31.429Z,53.50
2019-04-05T04:55:00.969Z,53.40
2019-04-05T04:57:29.952Z,53.50
2019-04-05T04:59:58.941Z,53.60
2019-04-05T05:02:28.132Z,53.90
2019-04-05T05:04:57.320Z,53.50
2019-04-05T05:07:26.571Z,53.40
2019-04-05T05:09:55.765Z,53.60
2019-04-05T05:12:25.820Z,53.40
2019-04-05T05:14:55.497Z,53.40
2019-04-05T05:17:37.291Z,53.40
2019-04-05T05:19:55.637Z,53.50
2019-04-05T05:22:24.709Z,53.40
2019-04-05T05:24:53.707Z,53.40
2019-04-05T05:27:22.951Z,53.40
2019-04-05T05:29:52.078Z,53.70
2019-04-05T05:32:21.167Z,53.80
2019-04-05T05:35:01.424Z,53.70
2019-04-05T05:37:21.286Z,53.80
2019-04-05T05:39:50.126Z,54.00
2019-04-05T05:42:19.115Z,53.50
2019-04-05T05:44:48.058Z,53.40
2019-04-05T05:47:17.106Z,53.50
2019-04-05T05:49:46.027Z,53.30
2019-04-05T05:52:16.293Z,53.20
2019-04-05T05:55:04.765Z,53.30
2019-04-05T05:57:33.684Z,53.50
2019-04-05T06:00:02.746Z,53.20
2019-04-05T06:02:31.622Z,53.60
2019-04-05T06:05:00.466Z,53.20
2019-04-05T06:07:29.412Z,53.40
2019-04-05T06:09:58.271Z,53.20
2019-04-05T06:12:27.202Z,53.50
2019-04-05T06:14:56.030Z,53.20
2019-04-05T06:17:25.026Z,52.80
2019-04-05T06:19:53.958Z,53.00
2019-04-05T06:22:22.806Z,53.10
2019-04-05T06:24:51.801Z,52.80
2019-04-05T06:27:20.719Z,52.70
2019-04-05T06:29:49.760Z,52.40
2019-04-05T06:32:18.574Z,52.50
2019-04-05T06:34:47.428Z,52.30
2019-04-05T06:37:16.338Z,52.20
2019-04-05T06:39:45.171Z,52.20
2019-04-05T06:42:14.110Z,52.00
2019-04-05T06:44:42.936Z,52.20
2019-04-05T06:47:11.810Z,51.90
2019-04-05T06:49:40.716Z,51.50
2019-04-05T06:52:09.633Z,51.10
2019-04-05T06:54:38.489Z,50.90
2019-04-05T06:57:07.296Z,50.40
2019-04-05T06:59:36.142Z,50.50
2019-04-05T07:02:05.138Z,50.30
2019-04-05T07:04:34.113Z,49.90
2019-04-05T07:07:03.151Z,49.90
2019-04-05T07:09:34.121Z,49.70
2019-04-05T07:12:02.651Z,49.40
2019-04-05T07:14:31.465Z,49.10
2019-04-05T07:17:00.525Z,49.10
2019-04-05T07:19:29.453Z,48.80
2019-04-05T07:21:58.316Z,48.50
2019-04-05T07:24:27.230Z,48.30
2019-04-05T07:26:56.113Z,48.10
2019-04-05T07:29:25.006Z,48.00
2019-04-05T07:31:53.922Z,47.50
2019-04-05T07:34:22.859Z,47.80
2019-04-05T07:36:51.678Z,47.40
2019-04-05T07:39:20.518Z,47.50
2019-04-05T07:41:49.527Z,47.60
2019-04-05T07:44:18.513Z,47.20
2019-04-05T07:46:47.338Z,46.60
2019-04-05T07:49:16.261Z,46.50
2019-04-05T07:51:45.191Z,46.20
2019-04-05T07:54:14.113Z,46.00
2019-04-05T07:56:46.022Z,45.40
2019-04-05T07:59:13.649Z,45.00
2019-04-05T08:01:42.664Z,45.20
2019-04-05T08:04:11.622Z,44.70
2019-04-05T08:06:43.093Z,44.60
2019-04-05T08:09:14.830Z,44.20
2019-04-05T08:11:45.560Z,44.00
2019-04-05T08:14:17.966Z,43.50
2019-04-05T08:16:47.408Z,43.30
2019-04-05T08:19:16.401Z,42.60
2019-04-05T08:21:45.313Z,42.80
2019-04-05T08:24:14.138Z,42.40
2019-04-05T08:26:43.101Z,41.60
2019-04-05T08:29:12.034Z,41.60
2019-04-05T08:31:41.048Z,41.00
2019-04-05T08:34:09.873Z,41.00
2019-04-05T08:36:38.869Z,40.70
2019-04-05T08:39:08.719Z,40.60
2019-04-05T08:41:37.765Z,40.20
2019-04-05T08:44:06.814Z,40.40
2019-04-05T08:46:36.160Z,40.30
2019-04-05T08:49:11.131Z,40.20
2019-04-05T08:51:36.299Z,39.80
2019-04-05T08:54:05.454Z,39.10
2019-04-05T08:56:34.314Z,39.60
2019-04-05T08:59:03.402Z,39.10
2019-04-05T09:01:32.386Z,39.40
2019-04-05T09:04:01.305Z,38.60
2019-04-05T09:06:30.210Z,38.20
2019-04-05T09:08:59.198Z,37.80
2019-04-05T09:11:28.049Z,37.70
2019-04-05T09:13:56.941Z,37.80
2019-04-05T09:16:25.778Z,37.60
2019-04-05T09:18:54.635Z,37.50
2019-04-05T09:21:23.533Z,37.10
2019-04-05T09:23:52.351Z,37.10
2019-04-05T09:26:21.185Z,37.00
2019-04-05T09:28:50.053Z,37.60
2019-04-05T09:31:18.957Z,37.70
2019-04-05T09:33:47.887Z,37.40
2019-04-05T09:36:16.761Z,37.00
2019-04-05T09:38:45.715Z,36.20
2019-04-05T09:41:14.736Z,36.30
2019-04-05T09:43:43.581Z,35.80
2019-04-05T09:46:12.491Z,35.80
2019-04-05T09:48:41.381Z,36.40
2019-04-05T09:51:10.370Z,36.40
2019-04-05T09:53:39.282Z,36.50
2019-04-05T09:56:08.230Z,36.00
2019-04-05T09:58:37.142Z,35.70
2019-04-05T10:01:07.010Z,34.80
2019-04-05T10:03:35.954Z,34.80
2019-04-05T10:06:05.026Z,34.90
2019-04-05T10:08:34.010Z,34.20
2019-04-05T10:11:03.004Z,33.80
2019-04-05T10:13:31.962Z,33.00
2019-04-05T10:16:00.781Z,32.80
2019-04-05T10:18:29.707Z,32.50
2019-04-05T10:20:58.557Z,32.10
2019-04-05T10:23:27.417Z,31.80
2019-04-05T10:25:56.318Z,31.80
2019-04-05T10:28:25.162Z,31.80
2019-04-05T10:30:54.068Z,31.90
2019-04-05T10:33:22.979Z,31.20
2019-04-05T10:35:51.881Z,31.40
2019-04-05T10:38:20.710Z,31.50
2019-04-05T10:40:49.654Z,31.60
2019-04-05T10:43:18.654Z,31.40
2019-04-05T10:45:48.055Z,31.40
2019-04-05T10:48:16.945Z,31.30
2019-04-05T10:50:45.782Z,31.20
2019-04-05T10:53:14.686Z,31.40
2019-04-05T10:55:43.619Z,31.20
2019-04-05T10:58:12.523Z,31.30
2019-04-05T11:00:41.525Z,30.80
2019-04-05T11:03:10.449Z,30.50
2019-04-05T11:05:39.431Z,30.40
2019-04-05T11:08:08.277Z,30.30
2019-04-05T11:10:37.178Z,30.50
2019-04-05T11:13:06.085Z,30.60
2019-04-05T11:15:34.987Z,30.30
2019-04-05T11:18:04.673Z,30.20
2019-04-05T11:20:33.784Z,30.00
2019-04-05T11:23:02.690Z,30.00
2019-04-05T11:25:31.618Z,30.00
2019-04-05T11:28:00.442Z,29.70
2019-04-05T11:30:46.205Z,29.80
2019-04-05T11:33:15.373Z,29.50
2019-04-05T11:35:44.674Z,29.80
2019-04-05T11:38:15.181Z,29.70
2019-04-05T11:40:44.963Z,29.70
2019-04-05T11:43:15.429Z,30.20
2019-04-05T11:45:45.510Z,30.40
2019-04-05T11:48:14.769Z,29.90
2019-04-05T11:50:43.683Z,29.90
2019-04-05T11:53:12.592Z,30.00
2019-04-05T11:55:41.558Z,30.20
2019-04-05T11:58:10.398Z,30.40
2019-04-05T12:00:48.329Z,30.70
2019-04-05T12:03:17.698Z,31.10
2019-04-05T12:05:46.567Z,31.30
2019-04-05T12:08:15.449Z,31.70
2019-04-05T12:10:44.469Z,31.90
2019-04-05T12:13:13.358Z,32.30
2019-04-05T12:15:42.202Z,32.50
2019-04-05T12:18:11.090Z,32.60
2019-04-05T12:20:49.531Z,32.50
2019-04-05T12:23:10.479Z,32.60
2019-04-05T12:25:39.456Z,32.50
2019-04-05T12:28:10.559Z,31.70
2019-04-05T12:30:40.370Z,32.10
2019-04-05T12:33:14.295Z,32.00
2019-04-05T12:35:39.923Z,32.10
2019-04-05T12:38:08.767Z,32.00
2019-04-05T12:40:38.466Z,32.10
2019-04-05T12:43:08.423Z,32.20
2019-04-05T12:45:37.419Z,32.20
2019-04-05T12:48:06.389Z,32.50
2019-04-05T12:50:35.290Z,32.40
2019-04-05T12:53:04.208Z,32.10
2019-04-05T12:55:33.051Z,32.00
2019-04-05T12:58:01.899Z,32.10
2019-04-05T13:00:30.831Z,32.20
2019-04-05T13:02:59.663Z,32.20
2019-04-05T13:05:28.517Z,32.50
2019-04-05T13:07:57.381Z,32.30
2019-04-05T13:10:26.602Z,32.40
2019-04-05T13:12:57.790Z,32.70
2019-04-05T13:15:26.629Z,32.80
2019-04-05T13:17:55.609Z,32.70
2019-04-05T13:20:24.546Z,32.60
2019-04-05T13:22:53.457Z,32.60
2019-04-05T13:25:23.114Z,32.50
2019-04-05T13:27:52.364Z,32.50
2019-04-05T13:30:21.352Z,32.50
2019-04-05T13:32:52.439Z,32.40
2019-04-05T13:35:20.977Z,32.40
2019-04-05T13:37:49.885Z,32.60
2019-04-05T13:40:18.898Z,32.50
2019-04-05T13:42:47.802Z,33.00
2019-04-05T13:45:17.107Z,32.60
2019-04-05T13:47:45.917Z,32.40
2019-04-05T13:50:15.373Z,32.70
2019-04-05T13:52:44.206Z,32.70
2019-04-05T13:55:13.473Z,32.50
2019-04-05T13:57:42.528Z,32.50
2019-04-05T14:00:12.755Z,32.80
2019-04-05T14:02:41.623Z,32.90
2019-04-05T14:05:10.998Z,32.90
2019-04-05T14:07:39.843Z,33.00
2019-04-05T14:10:12.345Z,33.30
2019-04-05T14:12:40.916Z,33.50
2019-04-05T14:15:11.447Z,33.50
2019-04-05T14:17:44.143Z,33.60
2019-04-05T14:20:13.744Z,33.40
2019-04-05T14:22:42.731Z,33.30
2019-04-05T14:25:12.185Z,33.50
2019-04-05T14:27:41.123Z,33.20
2019-04-05T14:30:13.472Z,33.40
2019-04-05T14:32:41.182Z,33.70
2019-04-05T14:35:10.345Z,33.80
2019-04-05T14:37:39.171Z,34.10
2019-04-05T14:40:09.484Z,34.10
2019-04-05T14:42:38.527Z,34.10
2019-04-05T14:45:07.648Z,34.30
2019-04-05T14:47:37.132Z,34.50
2019-04-05T14:50:07.181Z,34.50
2019-04-05T14:52:36.082Z,34.50
2019-04-05T14:55:05.869Z,34.30
2019-04-05T14:57:36.432Z,34.40
2019-04-05T15:00:06.649Z,34.60
2019-04-05T15:02:35.602Z,34.60
2019-04-05T15:05:05.121Z,34.50
2019-04-05T15:07:34.157Z,34.30
2019-04-05T15:10:05.282Z,34.60
2019-04-05T15:12:34.246Z,34.80
2019-04-05T15:15:03.239Z,35.00
2019-04-05T15:17:32.175Z,35.20
2019-04-05T15:20:04.633Z,35.30
2019-04-05T15:22:31.858Z,35.50
2019-04-05T15:25:01.063Z,35.40
2019-04-05T15:27:30.246Z,35.60
2019-04-05T15:29:59.117Z,35.60
2019-04-05T15:32:28.604Z,35.70
2019-04-05T15:34:58.964Z,35.80
2019-04-05T15:37:31.775Z,36.10
2019-04-05T15:40:00.418Z,36.20
2019-04-05T15:42:29.747Z,36.40
2019-04-05T15:44:58.638Z,36.80
2019-04-05T15:47:27.638Z,36.90
2019-04-05T15:49:56.604Z,37.30
2019-04-05T15:52:29.997Z,37.50
2019-04-05T15:54:56.184Z,37.60
2019-04-05T15:57:25.229Z,38.00
2019-04-05T15:59:54.279Z,38.10
2019-04-05T16:02:23.217Z,38.20
2019-04-05T16:04:52.234Z,38.20
2019-04-05T16:07:21.067Z,38.20
2019-04-05T16:09:50.105Z,38.50
2019-04-05T16:12:19.043Z,38.70
2019-04-05T16:14:47.948Z,38.80
2019-04-05T16:17:16.822Z,38.90
2019-04-05T16:19:45.850Z,39.30
2019-04-05T16:22:14.770Z,39.30
2019-04-05T16:24:43.655Z,39.40
2019-04-05T16:27:12.591Z,39.40
2019-04-05T16:29:41.507Z,39.50
2019-04-05T16:32:10.365Z,39.60
2019-04-05T16:34:39.569Z,39.70
2019-04-05T16:37:08.818Z,39.90
2019-04-05T16:39:37.864Z,40.00
2019-04-05T16:42:10.007Z,40.50
2019-04-05T16:44:37.670Z,40.50
2019-04-05T16:47:06.658Z,40.60
2019-04-05T16:49:35.807Z,40.70
2019-04-05T16:52:04.954Z,40.70
2019-04-05T16:54:33.868Z,40.80
2019-04-05T16:57:02.859Z,41.00
2019-04-05T16:59:31.859Z,41.10
2019-04-05T17:02:00.711Z,41.40
2019-04-05T17:04:29.654Z,41.60
2019-04-05T17:06:58.688Z,42.30
2019-04-05T17:09:27.544Z,42.20
2019-04-05T17:11:56.397Z,42.20
2019-04-05T17:14:25.246Z,42.10
2019-04-05T17:16:54.195Z,42.00
2019-04-05T17:19:23.181Z,42.10
2019-04-05T17:21:52.100Z,42.30
2019-04-05T17:24:21.026Z,42.60
2019-04-05T17:26:49.918Z,42.70
2019-04-05T17:29:18.750Z,42.80
2019-04-05T17:31:47.648Z,42.90
2019-04-05T17:34:16.641Z,43.00
2019-04-05T17:36:45.506Z,43.10
2019-04-05T17:39:14.367Z,43.20
2019-04-05T17:41:43.360Z,43.30
2019-04-05T17:44:12.236Z,43.50
2019-04-05T17:46:41.255Z,43.60
2019-04-05T17:49:10.283Z,44.20
2019-04-05T17:51:39.184Z,43.60
2019-04-05T17:54:08.171Z,43.90
2019-04-05T17:56:37.160Z,43.80
2019-04-05T17:59:06.266Z,43.90
2019-04-05T18:01:35.296Z,44.00
2019-04-05T18:04:04.323Z,44.10
2019-04-05T18:06:33.249Z,44.30
2019-04-05T18:09:02.179Z,44.40
2019-04-05T18:11:31.057Z,44.50
2019-04-05T18:13:59.999Z,44.50
2019-04-05T18:16:28.881Z,44.60
2019-04-05T18:18:57.805Z,44.60
2019-04-05T18:21:26.673Z,44.80
2019-04-05T18:23:55.661Z,44.90
2019-04-05T18:26:24.674Z,45.00
2019-04-05T18:28:53.521Z,45.10
2019-04-05T18:31:22.512Z,45.00
2019-04-05T18:33:51.469Z,45.10
2019-04-05T18:36:20.444Z,45.20
2019-04-05T18:38:49.389Z,45.40
2019-04-05T18:41:18.230Z,45.50
2019-04-05T18:43:47.153Z,45.40
2019-04-05T18:46:16.101Z,45.60
2019-04-05T18:48:45.087Z,45.70
2019-04-05T18:51:14.031Z,45.70
2019-04-05T18:53:42.911Z,45.90
2019-04-05T18:56:11.969Z,45.90
2019-04-05T18:58:40.825Z,45.90
2019-04-05T19:01:09.750Z,46.00
2019-04-05T19:03:38.701Z,46.10
2019-04-05T19:06:07.735Z,46.20
2019-04-05T19:08:39.822Z,46.20
2019-04-05T19:11:07.374Z,46.40
2019-04-05T19:13:36.386Z,46.50
2019-04-05T19:16:05.679Z,46.70
2019-04-05T19:18:34.673Z,46.80
2019-04-05T19:21:03.905Z,46.90
2019-04-05T19:23:32.958Z,47.10
2019-04-05T19:26:01.845Z,47.20
2019-04-05T19:28:31.103Z,47.20
2019-04-05T19:48:35.553Z,47.80
2019-04-05T19:51:05.189Z,48.00
2019-04-05T19:53:34.066Z,48.10
2019-04-05T19:56:02.981Z,48.10
2019-04-05T19:58:31.908Z,48.10
2019-04-05T20:01:00.851Z,48.20
2019-04-05T20:03:29.695Z,48.20
2019-04-05T20:05:58.560Z,48.40
2019-04-05T20:08:27.470Z,48.50
2019-04-05T20:10:56.421Z,48.70
2019-04-05T20:13:25.333Z,48.80
2019-04-05T20:15:54.289Z,48.80
2019-04-05T20:18:23.124Z,48.90
2019-04-05T20:20:52.072Z,48.90
2019-04-05T20:23:20.924Z,48.90
2019-04-05T20:25:49.759Z,49.10
2019-04-05T20:28:18.782Z,49.10
2019-04-05T20:30:47.605Z,49.20
2019-04-05T20:33:16.526Z,49.40
2019-04-05T20:35:45.387Z,48.90
2019-04-05T20:38:14.247Z,49.50
2019-04-05T20:40:43.244Z,49.60
2019-04-05T20:43:12.195Z,49.70
2019-04-05T20:45:41.118Z,49.80
2019-04-05T20:48:10.132Z,49.90
2019-04-05T20:50:39.069Z,50.60
2019-04-05T20:53:08.002Z,50.10
2019-04-05T20:55:37.420Z,50.30
2019-04-05T20:58:06.804Z,50.30
2019-04-05T21:00:35.756Z,50.50
2019-04-05T21:03:04.786Z,50.50
2019-04-05T21:05:33.692Z,50.50
2019-04-05T21:08:02.671Z,50.70
2019-04-05T21:10:31.655Z,51.40
2019-04-05T21:13:00.588Z,50.90
2019-04-05T21:15:29.505Z,50.90
2019-04-05T21:17:58.377Z,50.90
2019-04-05T21:20:27.334Z,51.00
2019-04-05T21:22:56.195Z,51.20
2019-04-05T21:25:25.373Z,51.20
2019-04-05T21:27:54.264Z,51.40
2019-04-05T21:30:23.367Z,51.30
2019-04-05T21:32:52.288Z,51.50
2019-04-05T21:35:21.443Z,51.60
2019-04-05T21:37:50.500Z,51.60
2019-04-05T21:40:19.759Z,51.70
2019-04-05T21:42:48.736Z,51.90
2019-04-05T21:45:17.708Z,51.90
2019-04-05T21:47:46.739Z,52.00
2019-04-05T21:50:15.896Z,51.90
2019-04-05T21:52:44.896Z,52.00
2019-04-05T21:55:13.807Z,52.10
2019-04-05T21:57:42.832Z,52.10
2019-04-05T22:00:22.798Z,52.20
2019-04-05T22:02:51.870Z,52.30
2019-04-05T22:05:20.980Z,52.40
2019-04-05T22:07:51.546Z,52.50
2019-04-05T22:10:20.728Z,52.50
2019-04-05T22:12:51.010Z,52.50
2019-04-05T22:15:21.477Z,52.50
2019-04-05T22:17:51.237Z,52.60
2019-04-05T22:20:20.423Z,52.60
2019-04-05T22:22:49.544Z,52.60
2019-04-05T22:25:19.667Z,52.60
2019-04-05T22:27:48.657Z,52.70
2019-04-05T22:30:17.994Z,52.60
2019-04-05T22:32:47.154Z,52.70
2019-04-05T22:35:16.175Z,52.70
2019-04-05T22:37:45.140Z,52.70
2019-04-05T22:40:14.504Z,52.80
2019-04-05T22:42:43.565Z,52.80
2019-04-05T22:45:13.027Z,52.60
2019-04-05T22:47:42.021Z,52.70
2019-04-05T22:50:11.314Z,52.70
2019-04-05T22:52:40.468Z,52.70
2019-04-05T22:55:11.628Z,52.80
2019-04-05T22:57:40.329Z,52.80
2019-04-05T23:00:10.086Z,52.90
2019-04-05T23:02:39.173Z,52.70
2019-04-05T23:05:08.529Z,52.80
2019-04-05T23:07:37.673Z,52.80
2019-04-05T23:10:07.245Z,52.70
2019-04-05T23:12:36.265Z,52.70
2019-04-05T23:15:06.181Z,52.70
2019-04-05T23:17:35.310Z,52.90
2019-04-05T23:20:04.649Z,52.80
2019-04-05T23:22:33.659Z,52.90
2019-04-05T23:25:02.751Z,52.80
2019-04-05T23:27:31.777Z,52.90
2019-04-05T23:30:00.786Z,53.00
2019-04-05T23:32:29.896Z,53.00
2019-04-05T23:34:58.906Z,53.00
2019-04-05T23:37:27.942Z,53.00
2019-04-05T23:39:57.074Z,52.90
2019-04-05T23:42:26.133Z,53.00
2019-04-05T23:44:55.299Z,52.90
2019-04-05T23:47:24.324Z,52.90
2019-04-05T23:49:53.402Z,53.10
2019-04-05T23:52:22.542Z,53.00
2019-04-05T23:54:51.461Z,53.00
2019-04-05T23:57:20.476Z,53.00
2019-04-05T23:59:49.461Z,53.00
